Alburnett, Iowa
Current Conditions -  °F | °C
As of 9:52 AM on Thursday 30 Oct 2014 (Local Time) from KCID Reporting Station
Light Rain Light Rain  
Wind Chill:   Ceiling: 6000
Heat Index:   Visibility: 10mi
Dew Point:   Wind: 12mph
Humidity: 82%   Direction: 160°SSE
Pressure: 30.06"   Gusts: NA
Location:  42.15°N, 91.62°W
Report Text: KCID 301452Z 16010KT 10SM -RA OVC060 06/03 A3006 RMK AO2 RAB28 SLP187 P0000 60000 T00560028 58004
Loading
Personal Weather Stations






























Interactive Weather Map
Tropical Storm Tracking
New forecast layout! Learn more

10-Day Weather Forecast

Advertisements
Track Severe Weather on mobile